Iowa Falls, Iowa
Current Conditions -  °F | °C
As of 11:35 PM on Saturday 20 Dec 2014 (Local Time) from KIFA Reporting Station
Haze Haze  
Wind Chill: 25°   Ceiling: 700
Heat Index: 33°   Visibility: 3mi
Dew Point: 32°   Wind: 8mph
Humidity: 98%   Direction: 150°SSE
Pressure: 30.09"   Gusts: NA
Location:  42.52°N, 93.26°W
Report Text: KIFA 210535Z AUTO 15007KT 3SM BR OVC007 00/00 A3009 RMK AO2 T00030000
Loading
Personal Weather Stations






























Interactive Weather Map New forecast layout! Learn more

10-Day Weather Forecast

Advertisements
Track Severe Weather on mobile